sensor_id;sensor_type;location;lat;lon;timestamp;temperature;humidity
16283;DHT22;8249;48.708;9.030;2022-12-11T00:01:59;-3.20;99.90
16283;DHT22;8249;48.708;9.030;2022-12-11T00:04:26;-3.30;99.90
16283;DHT22;8249;48.708;9.030;2022-12-11T00:06:53;-3.40;99.90
16283;DHT22;8249;48.708;9.030;2022-12-11T00:09:20;-3.50;99.90
16283;DHT22;8249;48.708;9.030;2022-12-11T00:11:48;-3.50;99.90
16283;DHT22;8249;48.708;9.030;2022-12-11T00:14:15;-3.60;99.90
16283;DHT22;8249;48.708;9.030;2022-12-11T00:16:42;-3.60;99.90
16283;DHT22;8249;48.708;9.030;2022-12-11T00:19:09;-3.60;99.90
16283;DHT22;8249;48.708;9.030;2022-12-11T00:21:36;-3.70;99.90
16283;DHT22;8249;48.708;9.030;2022-12-11T00:24:04;-3.70;99.90
16283;DHT22;8249;48.708;9.030;2022-12-11T00:26:31;-3.70;99.90
16283;DHT22;8249;48.708;9.030;2022-12-11T00:29:00;-3.70;99.90
16283;DHT22;8249;48.708;9.030;2022-12-11T00:31:27;-3.70;99.90
16283;DHT22;8249;48.708;9.030;2022-12-11T00:33:54;-3.80;99.90
16283;DHT22;8249;48.708;9.030;2022-12-11T00:36:22;-3.80;99.90
16283;DHT22;8249;48.708;9.030;2022-12-11T00:38:50;-3.80;99.90
16283;DHT22;8249;48.708;9.030;2022-12-11T00:41:18;-3.90;99.90
16283;DHT22;8249;48.708;9.030;2022-12-11T00:43:45;-3.90;99.90
16283;DHT22;8249;48.708;9.030;2022-12-11T00:46:14;-3.90;99.90
16283;DHT22;8249;48.708;9.030;2022-12-11T00:48:41;-3.80;99.90
16283;DHT22;8249;48.708;9.030;2022-12-11T00:51:08;-3.70;99.90
16283;DHT22;8249;48.708;9.030;2022-12-11T00:53:35;-3.60;99.90
16283;DHT22;8249;48.708;9.030;2022-12-11T00:56:09;-3.50;99.90
16283;DHT22;8249;48.708;9.030;2022-12-11T00:58:37;-3.40;99.90
16283;DHT22;8249;48.708;9.030;2022-12-11T01:01:05;-3.30;99.90
16283;DHT22;8249;48.708;9.030;2022-12-11T01:03:34;-3.20;99.90
16283;DHT22;8249;48.708;9.030;2022-12-11T01:06:02;-3.10;99.90
16283;DHT22;8249;48.708;9.030;2022-12-11T01:08:29;-3.00;99.90
16283;DHT22;8249;48.708;9.030;2022-12-11T01:11:04;-2.90;99.90
16283;DHT22;8249;48.708;9.030;2022-12-11T01:13:31;-2.90;99.90
16283;DHT22;8249;48.708;9.030;2022-12-11T01:15:58;-2.90;99.90
16283;DHT22;8249;48.708;9.030;2022-12-11T01:18:25;-2.90;99.90
16283;DHT22;8249;48.708;9.030;2022-12-11T01:20:53;-2.80;99.90
16283;DHT22;8249;48.708;9.030;2022-12-11T01:23:21;-2.80;99.90
16283;DHT22;8249;48.708;9.030;2022-12-11T01:25:48;-2.80;99.90
16283;DHT22;8249;48.708;9.030;2022-12-11T01:28:15;-2.80;99.90
16283;DHT22;8249;48.708;9.030;2022-12-11T01:30:42;-2.80;99.90
16283;DHT22;8249;48.708;9.030;2022-12-11T01:33:09;-2.80;99.90
16283;DHT22;8249;48.708;9.030;2022-12-11T01:35:37;-2.80;99.90
16283;DHT22;8249;48.708;9.030;2022-12-11T01:38:06;-2.80;99.90
16283;DHT22;8249;48.708;9.030;2022-12-11T01:40:33;-2.70;99.90
16283;DHT22;8249;48.708;9.030;2022-12-11T01:43:00;-2.70;99.90
16283;DHT22;8249;48.708;9.030;2022-12-11T01:45:45;-2.60;99.90
16283;DHT22;8249;48.708;9.030;2022-12-11T01:48:17;-2.50;99.90
16283;DHT22;8249;48.708;9.030;2022-12-11T01:50:47;-2.50;99.90
16283;DHT22;8249;48.708;9.030;2022-12-11T01:53:19;-2.40;99.90
16283;DHT22;8249;48.708;9.030;2022-12-11T01:55:48;-2.30;99.90
16283;DHT22;8249;48.708;9.030;2022-12-11T01:58:17;-2.30;99.90
16283;DHT22;8249;48.708;9.030;2022-12-11T02:00:45;-2.30;99.90
16283;DHT22;8249;48.708;9.030;2022-12-11T02:03:13;-2.30;99.90
16283;DHT22;8249;48.708;9.030;2022-12-11T02:05:40;-2.20;99.90
16283;DHT22;8249;48.708;9.030;2022-12-11T02:08:07;-2.10;99.90
16283;DHT22;8249;48.708;9.030;2022-12-11T02:10:53;-2.10;99.90
16283;DHT22;8249;48.708;9.030;2022-12-11T02:13:33;-2.10;99.90
16283;DHT22;8249;48.708;9.030;2022-12-11T02:16:08;-2.10;99.90
16283;DHT22;8249;48.708;9.030;2022-12-11T02:18:43;-2.00;99.90
16283;DHT22;8249;48.708;9.030;2022-12-11T02:21:19;-2.10;99.90
16283;DHT22;8249;48.708;9.030;2022-12-11T02:24:10;-2.10;99.90
16283;DHT22;8249;48.708;9.030;2022-12-11T02:29:38;-2.00;99.90
16283;DHT22;8249;48.708;9.030;2022-12-11T02:32:11;-1.90;99.90
16283;DHT22;8249;48.708;9.030;2022-12-11T02:34:43;-1.90;99.90
16283;DHT22;8249;48.708;9.030;2022-12-11T02:37:17;-1.90;99.90
16283;DHT22;8249;48.708;9.030;2022-12-11T02:39:45;-1.80;99.90
16283;DHT22;8249;48.708;9.030;2022-12-11T02:42:14;-1.80;99.90
16283;DHT22;8249;48.708;9.030;2022-12-11T02:44:44;-1.80;99.90
16283;DHT22;8249;48.708;9.030;2022-12-11T02:47:13;-1.70;99.90
16283;DHT22;8249;48.708;9.030;2022-12-11T02:49:42;-1.70;99.90
16283;DHT22;8249;48.708;9.030;2022-12-11T02:52:11;-1.70;99.90
16283;DHT22;8249;48.708;9.030;2022-12-11T02:54:42;-1.80;99.90
16283;DHT22;8249;48.708;9.030;2022-12-11T02:57:13;-1.80;99.90
16283;DHT22;8249;48.708;9.030;2022-12-11T02:59:44;-1.80;99.90
16283;DHT22;8249;48.708;9.030;2022-12-11T03:02:12;-1.80;99.90
16283;DHT22;8249;48.708;9.030;2022-12-11T03:04:40;-1.80;99.90
16283;DHT22;8249;48.708;9.030;2022-12-11T03:07:11;-1.80;99.90
16283;DHT22;8249;48.708;9.030;2022-12-11T03:09:41;-1.80;99.90
16283;DHT22;8249;48.708;9.030;2022-12-11T03:12:10;-1.80;99.90
16283;DHT22;8249;48.708;9.030;2022-12-11T03:14:39;-1.90;99.90
16283;DHT22;8249;48.708;9.030;2022-12-11T03:17:12;-1.90;99.90
16283;DHT22;8249;48.708;9.030;2022-12-11T03:19:46;-2.00;99.90
16283;DHT22;8249;48.708;9.030;2022-12-11T03:22:17;-2.00;99.90
16283;DHT22;8249;48.708;9.030;2022-12-11T03:24:49;-1.90;99.90
16283;DHT22;8249;48.708;9.030;2022-12-11T03:27:21;-1.90;99.90
16283;DHT22;8249;48.708;9.030;2022-12-11T03:29:55;-1.90;99.90
16283;DHT22;8249;48.708;9.030;2022-12-11T03:32:28;-1.90;99.90
16283;DHT22;8249;48.708;9.030;2022-12-11T03:34:59;-1.90;99.90
16283;DHT22;8249;48.708;9.030;2022-12-11T03:37:33;-1.80;99.90
16283;DHT22;8249;48.708;9.030;2022-12-11T03:40:06;-1.80;99.90
16283;DHT22;8249;48.708;9.030;2022-12-11T03:42:36;-1.80;99.90
16283;DHT22;8249;48.708;9.030;2022-12-11T03:45:05;-1.80;99.90
16283;DHT22;8249;48.708;9.030;2022-12-11T03:47:35;-1.80;99.90
16283;DHT22;8249;48.708;9.030;2022-12-11T03:50:05;-1.80;99.90
16283;DHT22;8249;48.708;9.030;2022-12-11T03:52:34;-1.80;99.90
16283;DHT22;8249;48.708;9.030;2022-12-11T03:55:04;-1.80;99.90
16283;DHT22;8249;48.708;9.030;2022-12-11T03:57:35;-1.70;99.90
16283;DHT22;8249;48.708;9.030;2022-12-11T04:00:04;-1.70;99.90
16283;DHT22;8249;48.708;9.030;2022-12-11T04:02:39;-1.70;99.90
16283;DHT22;8249;48.708;9.030;2022-12-11T04:05:07;-1.70;99.90
16283;DHT22;8249;48.708;9.030;2022-12-11T04:07:34;-1.70;99.90
16283;DHT22;8249;48.708;9.030;2022-12-11T04:10:03;-1.70;99.90
16283;DHT22;8249;48.708;9.030;2022-12-11T04:12:30;-1.80;99.90
16283;DHT22;8249;48.708;9.030;2022-12-11T04:14:57;-1.70;99.90
16283;DHT22;8249;48.708;9.030;2022-12-11T04:17:31;-1.70;99.90
16283;DHT22;8249;48.708;9.030;2022-12-11T04:20:17;-1.70;99.90
16283;DHT22;8249;48.708;9.030;2022-12-11T04:23:03;-1.70;99.90
16283;DHT22;8249;48.708;9.030;2022-12-11T04:25:47;-1.70;99.90
16283;DHT22;8249;48.708;9.030;2022-12-11T04:28:14;-1.70;99.90
16283;DHT22;8249;48.708;9.030;2022-12-11T04:30:47;-1.70;99.90
16283;DHT22;8249;48.708;9.030;2022-12-11T04:33:14;-1.70;99.90
16283;DHT22;8249;48.708;9.030;2022-12-11T04:35:43;-1.60;99.90
16283;DHT22;8249;48.708;9.030;2022-12-11T04:38:10;-1.60;99.90
16283;DHT22;8249;48.708;9.030;2022-12-11T04:40:37;-1.60;99.90
16283;DHT22;8249;48.708;9.030;2022-12-11T04:43:04;-1.60;99.90
16283;DHT22;8249;48.708;9.030;2022-12-11T04:45:31;-1.60;99.90
16283;DHT22;8249;48.708;9.030;2022-12-11T04:48:00;-1.60;99.90
16283;DHT22;8249;48.708;9.030;2022-12-11T04:50:27;-1.60;99.90
16283;DHT22;8249;48.708;9.030;2022-12-11T04:52:56;-1.60;99.90
16283;DHT22;8249;48.708;9.030;2022-12-11T04:55:23;-1.60;99.90
16283;DHT22;8249;48.708;9.030;2022-12-11T04:57:50;-1.60;99.90
16283;DHT22;8249;48.708;9.030;2022-12-11T05:00:17;-1.60;99.90
16283;DHT22;8249;48.708;9.030;2022-12-11T05:02:44;-1.60;99.90
16283;DHT22;8249;48.708;9.030;2022-12-11T05:05:11;-1.60;99.90
16283;DHT22;8249;48.708;9.030;2022-12-11T05:07:39;-1.60;99.90
16283;DHT22;8249;48.708;9.030;2022-12-11T05:10:08;-1.60;99.90
16283;DHT22;8249;48.708;9.030;2022-12-11T05:12:36;-1.70;99.90
16283;DHT22;8249;48.708;9.030;2022-12-11T05:15:03;-1.60;99.90
16283;DHT22;8249;48.708;9.030;2022-12-11T05:17:30;-1.70;99.90
16283;DHT22;8249;48.708;9.030;2022-12-11T05:19:58;-1.70;99.90
16283;DHT22;8249;48.708;9.030;2022-12-11T05:22:25;-1.70;99.90
16283;DHT22;8249;48.708;9.030;2022-12-11T05:24:52;-1.70;99.90
16283;DHT22;8249;48.708;9.030;2022-12-11T05:27:20;-1.70;99.90
16283;DHT22;8249;48.708;9.030;2022-12-11T05:29:47;-1.70;99.90
16283;DHT22;8249;48.708;9.030;2022-12-11T05:32:14;-1.70;99.90
16283;DHT22;8249;48.708;9.030;2022-12-11T05:34:41;-1.60;99.90
16283;DHT22;8249;48.708;9.030;2022-12-11T05:37:08;-1.70;99.90
16283;DHT22;8249;48.708;9.030;2022-12-11T05:39:37;-1.60;99.90
16283;DHT22;8249;48.708;9.030;2022-12-11T05:42:04;-1.70;99.90
16283;DHT22;8249;48.708;9.030;2022-12-11T05:44:32;-1.70;99.90
16283;DHT22;8249;48.708;9.030;2022-12-11T05:47:00;-1.70;99.90
16283;DHT22;8249;48.708;9.030;2022-12-11T05:49:27;-1.80;99.90
16283;DHT22;8249;48.708;9.030;2022-12-11T05:51:54;-1.80;99.90
16283;DHT22;8249;48.708;9.030;2022-12-11T05:54:21;-1.80;99.90
16283;DHT22;8249;48.708;9.030;2022-12-11T05:56:48;-1.90;99.90
16283;DHT22;8249;48.708;9.030;2022-12-11T05:59:15;-2.00;99.90
16283;DHT22;8249;48.708;9.030;2022-12-11T06:01:45;-2.10;99.90
16283;DHT22;8249;48.708;9.030;2022-12-11T06:04:12;-2.20;99.90
16283;DHT22;8249;48.708;9.030;2022-12-11T06:06:40;-2.30;99.90
16283;DHT22;8249;48.708;9.030;2022-12-11T06:09:13;-2.50;99.90
16283;DHT22;8249;48.708;9.030;2022-12-11T06:11:40;-2.50;99.90
16283;DHT22;8249;48.708;9.030;2022-12-11T06:14:09;-2.60;99.90
16283;DHT22;8249;48.708;9.030;2022-12-11T06:16:36;-2.60;99.90
16283;DHT22;8249;48.708;9.030;2022-12-11T06:19:04;-2.70;99.90
16283;DHT22;8249;48.708;9.030;2022-12-11T06:21:32;-2.80;99.90
16283;DHT22;8249;48.708;9.030;2022-12-11T06:24:00;-2.90;99.90
16283;DHT22;8249;48.708;9.030;2022-12-11T06:26:28;-3.00;99.90
16283;DHT22;8249;48.708;9.030;2022-12-11T06:28:56;-3.00;99.90
16283;DHT22;8249;48.708;9.030;2022-12-11T06:31:23;-3.10;99.90
16283;DHT22;8249;48.708;9.030;2022-12-11T06:33:50;-3.10;99.90
16283;DHT22;8249;48.708;9.030;2022-12-11T06:36:20;-3.10;99.90
16283;DHT22;8249;48.708;9.030;2022-12-11T06:38:48;-3.20;99.90
16283;DHT22;8249;48.708;9.030;2022-12-11T06:41:15;-3.20;99.90
16283;DHT22;8249;48.708;9.030;2022-12-11T06:43:42;-3.20;99.90
16283;DHT22;8249;48.708;9.030;2022-12-11T06:46:12;-3.30;99.90
16283;DHT22;8249;48.708;9.030;2022-12-11T06:48:39;-3.30;99.90
16283;DHT22;8249;48.708;9.030;2022-12-11T06:51:08;-3.40;99.90
16283;DHT22;8249;48.708;9.030;2022-12-11T06:53:40;-3.40;99.90
16283;DHT22;8249;48.708;9.030;2022-12-11T06:56:12;-3.50;99.90
16283;DHT22;8249;48.708;9.030;2022-12-11T06:58:41;-3.50;99.90
16283;DHT22;8249;48.708;9.030;2022-12-11T07:01:14;-3.40;99.90
16283;DHT22;8249;48.708;9.030;2022-12-11T07:03:41;-3.40;99.90
16283;DHT22;8249;48.708;9.030;2022-12-11T07:06:08;-3.40;99.90
16283;DHT22;8249;48.708;9.030;2022-12-11T07:08:35;-3.40;99.90
16283;DHT22;8249;48.708;9.030;2022-12-11T07:11:08;-3.40;99.90
16283;DHT22;8249;48.708;9.030;2022-12-11T07:13:36;-3.30;99.90
16283;DHT22;8249;48.708;9.030;2022-12-11T07:16:03;-3.40;99.90
16283;DHT22;8249;48.708;9.030;2022-12-11T07:18:35;-3.30;99.90
16283;DHT22;8249;48.708;9.030;2022-12-11T07:21:03;-3.30;99.90
16283;DHT22;8249;48.708;9.030;2022-12-11T07:23:30;-3.30;99.90
16283;DHT22;8249;48.708;9.030;2022-12-11T07:25:58;-3.20;99.90
16283;DHT22;8249;48.708;9.030;2022-12-11T07:28:30;-3.10;99.90
16283;DHT22;8249;48.708;9.030;2022-12-11T07:30:57;-3.10;99.90
16283;DHT22;8249;48.708;9.030;2022-12-11T07:33:24;-3.20;99.90
16283;DHT22;8249;48.708;9.030;2022-12-11T07:35:51;-3.00;99.90
16283;DHT22;8249;48.708;9.030;2022-12-11T07:38:18;-3.00;99.90
16283;DHT22;8249;48.708;9.030;2022-12-11T07:40:45;-2.90;99.90
16283;DHT22;8249;48.708;9.030;2022-12-11T07:43:12;-2.80;99.90
16283;DHT22;8249;48.708;9.030;2022-12-11T07:45:42;-2.80;99.90
16283;DHT22;8249;48.708;9.030;2022-12-11T07:48:09;-2.70;99.90
16283;DHT22;8249;48.708;9.030;2022-12-11T07:50:37;-2.60;99.90
16283;DHT22;8249;48.708;9.030;2022-12-11T07:53:04;-2.50;99.90
16283;DHT22;8249;48.708;9.030;2022-12-11T07:55:32;-2.40;99.90
16283;DHT22;8249;48.708;9.030;2022-12-11T07:57:59;-2.20;99.90
16283;DHT22;8249;48.708;9.030;2022-12-11T08:00:26;-2.10;99.90
16283;DHT22;8249;48.708;9.030;2022-12-11T08:02:54;-2.00;99.90
16283;DHT22;8249;48.708;9.030;2022-12-11T08:05:21;-1.90;99.90
16283;DHT22;8249;48.708;9.030;2022-12-11T08:07:48;-1.60;99.90
16283;DHT22;8249;48.708;9.030;2022-12-11T08:10:15;-1.40;99.90
16283;DHT22;8249;48.708;9.030;2022-12-11T08:12:42;-1.10;99.90
16283;DHT22;8249;48.708;9.030;2022-12-11T08:15:09;-0.80;99.90
16283;DHT22;8249;48.708;9.030;2022-12-11T08:17:36;-0.60;99.90
16283;DHT22;8249;48.708;9.030;2022-12-11T08:20:05;-0.40;99.90
16283;DHT22;8249;48.708;9.030;2022-12-11T08:22:34;-0.20;99.90
16283;DHT22;8249;48.708;9.030;2022-12-11T08:25:01;-0.10;99.90
16283;DHT22;8249;48.708;9.030;2022-12-11T08:27:28;-0.10;99.90
16283;DHT22;8249;48.708;9.030;2022-12-11T08:29:56;-0.30;99.90
16283;DHT22;8249;48.708;9.030;2022-12-11T08:32:23;-0.50;99.90
16283;DHT22;8249;48.708;9.030;2022-12-11T08:34:51;-0.50;99.90
16283;DHT22;8249;48.708;9.030;2022-12-11T08:37:19;-0.70;99.90
16283;DHT22;8249;48.708;9.030;2022-12-11T08:39:46;-0.90;99.90
16283;DHT22;8249;48.708;9.030;2022-12-11T08:42:13;-1.00;99.90
16283;DHT22;8249;48.708;9.030;2022-12-11T08:44:40;-1.10;99.90
16283;DHT22;8249;48.708;9.030;2022-12-11T08:47:07;-1.10;99.90
16283;DHT22;8249;48.708;9.030;2022-12-11T08:49:35;-0.90;99.90
16283;DHT22;8249;48.708;9.030;2022-12-11T08:52:03;-0.90;99.90
16283;DHT22;8249;48.708;9.030;2022-12-11T08:54:32;-0.80;99.90
16283;DHT22;8249;48.708;9.030;2022-12-11T08:56:58;-0.70;99.90
16283;DHT22;8249;48.708;9.030;2022-12-11T08:59:26;-0.70;99.90
16283;DHT22;8249;48.708;9.030;2022-12-11T09:01:53;-0.60;99.90
16283;DHT22;8249;48.708;9.030;2022-12-11T09:04:20;-0.60;99.90
16283;DHT22;8249;48.708;9.030;2022-12-11T09:06:48;-0.50;99.90
16283;DHT22;8249;48.708;9.030;2022-12-11T09:09:15;-0.30;99.90
16283;DHT22;8249;48.708;9.030;2022-12-11T09:11:44;-0.30;99.90
16283;DHT22;8249;48.708;9.030;2022-12-11T09:14:11;-0.20;99.90
16283;DHT22;8249;48.708;9.030;2022-12-11T09:16:39;-0.30;99.90
16283;DHT22;8249;48.708;9.030;2022-12-11T09:19:07;-0.30;99.90
16283;DHT22;8249;48.708;9.030;2022-12-11T09:21:35;-0.40;99.90
16283;DHT22;8249;48.708;9.030;2022-12-11T09:24:03;-0.40;99.90
16283;DHT22;8249;48.708;9.030;2022-12-11T09:26:30;-0.50;99.90
16283;DHT22;8249;48.708;9.030;2022-12-11T09:29:02;-0.40;99.90
16283;DHT22;8249;48.708;9.030;2022-12-11T09:31:31;-0.60;99.90
16283;DHT22;8249;48.708;9.030;2022-12-11T09:33:59;-0.50;99.90
16283;DHT22;8249;48.708;9.030;2022-12-11T09:36:27;-0.40;99.90
16283;DHT22;8249;48.708;9.030;2022-12-11T09:38:59;-0.30;99.90
16283;DHT22;8249;48.708;9.030;2022-12-11T09:41:35;-0.20;99.90
16283;DHT22;8249;48.708;9.030;2022-12-11T09:44:18;-0.10;99.90
16283;DHT22;8249;48.708;9.030;2022-12-11T09:46:46;-0.10;99.90
16283;DHT22;8249;48.708;9.030;2022-12-11T09:49:28;0.00;99.90
16283;DHT22;8249;48.708;9.030;2022-12-11T09:52:04;0.00;99.90
16283;DHT22;8249;48.708;9.030;2022-12-11T09:54:32;0.10;99.90
16283;DHT22;8249;48.708;9.030;2022-12-11T09:57:07;0.10;99.90
16283;DHT22;8249;48.708;9.030;2022-12-11T09:59:47;0.20;99.90
16283;DHT22;8249;48.708;9.030;2022-12-11T10:02:24;0.30;99.90
16283;DHT22;8249;48.708;9.030;2022-12-11T10:05:01;0.20;99.90
16283;DHT22;8249;48.708;9.030;2022-12-11T10:07:37;0.20;99.90
16283;DHT22;8249;48.708;9.030;2022-12-11T10:10:11;0.30;99.90
16283;DHT22;8249;48.708;9.030;2022-12-11T10:12:44;0.30;99.90
16283;DHT22;8249;48.708;9.030;2022-12-11T10:15:28;0.30;99.90
16283;DHT22;8249;48.708;9.030;2022-12-11T10:17:59;0.40;99.90
16283;DHT22;8249;48.708;9.030;2022-12-11T10:20:29;0.50;99.90
16283;DHT22;8249;48.708;9.030;2022-12-11T10:23:00;0.60;99.90
16283;DHT22;8249;48.708;9.030;2022-12-11T10:25:30;0.70;99.90
16283;DHT22;8249;48.708;9.030;2022-12-11T10:27:59;0.80;99.90
16283;DHT22;8249;48.708;9.030;2022-12-11T10:30:34;0.70;99.90
16283;DHT22;8249;48.708;9.030;2022-12-11T10:33:11;0.80;99.90
16283;DHT22;8249;48.708;9.030;2022-12-11T10:35:44;0.90;99.90
16283;DHT22;8249;48.708;9.030;2022-12-11T10:38:16;0.90;99.90
16283;DHT22;8249;48.708;9.030;2022-12-11T10:40:48;0.90;99.90
16283;DHT22;8249;48.708;9.030;2022-12-11T10:43:16;1.00;99.90
16283;DHT22;8249;48.708;9.030;2022-12-11T10:45:51;1.10;99.90
16283;DHT22;8249;48.708;9.030;2022-12-11T10:48:19;1.30;99.90
16283;DHT22;8249;48.708;9.030;2022-12-11T10:50:56;1.40;99.90
16283;DHT22;8249;48.708;9.030;2022-12-11T10:53:23;1.50;99.90
16283;DHT22;8249;48.708;9.030;2022-12-11T10:55:51;1.50;99.90
16283;DHT22;8249;48.708;9.030;2022-12-11T10:58:21;1.40;99.90
16283;DHT22;8249;48.708;9.030;2022-12-11T11:01:02;1.30;99.90
16283;DHT22;8249;48.708;9.030;2022-12-11T11:03:31;1.50;99.90
16283;DHT22;8249;48.708;9.030;2022-12-11T11:06:04;1.60;99.90
16283;DHT22;8249;48.708;9.030;2022-12-11T11:08:39;1.70;99.90
16283;DHT22;8249;48.708;9.030;2022-12-11T11:11:18;1.70;99.90
16283;DHT22;8249;48.708;9.030;2022-12-11T11:13:46;1.90;99.90
16283;DHT22;8249;48.708;9.030;2022-12-11T11:16:17;2.00;99.90
16283;DHT22;8249;48.708;9.030;2022-12-11T11:18:50;1.80;99.90
16283;DHT22;8249;48.708;9.030;2022-12-11T11:21:19;1.80;99.90
16283;DHT22;8249;48.708;9.030;2022-12-11T11:23:47;1.70;99.90
16283;DHT22;8249;48.708;9.030;2022-12-11T11:26:14;1.60;99.90
16283;DHT22;8249;48.708;9.030;2022-12-11T11:28:46;1.60;99.90
16283;DHT22;8249;48.708;9.030;2022-12-11T11:31:17;1.60;99.90
16283;DHT22;8249;48.708;9.030;2022-12-11T11:33:52;1.70;99.90
16283;DHT22;8249;48.708;9.030;2022-12-11T11:36:22;1.90;99.90
16283;DHT22;8249;48.708;9.030;2022-12-11T11:39:02;2.00;99.90
16283;DHT22;8249;48.708;9.030;2022-12-11T11:41:37;2.00;99.90
16283;DHT22;8249;48.708;9.030;2022-12-11T11:44:09;2.00;99.90
16283;DHT22;8249;48.708;9.030;2022-12-11T11:46:42;2.10;99.90
16283;DHT22;8249;48.708;9.030;2022-12-11T11:49:16;2.10;99.90
16283;DHT22;8249;48.708;9.030;2022-12-11T11:51:49;2.20;99.90
16283;DHT22;8249;48.708;9.030;2022-12-11T11:54:26;2.10;99.90
16283;DHT22;8249;48.708;9.030;2022-12-11T11:56:55;2.10;99.90
16283;DHT22;8249;48.708;9.030;2022-12-11T11:59:25;2.00;99.90
16283;DHT22;8249;48.708;9.030;2022-12-11T12:01:55;2.10;99.90
16283;DHT22;8249;48.708;9.030;2022-12-11T12:04:24;2.00;99.90
16283;DHT22;8249;48.708;9.030;2022-12-11T12:07:05;1.90;99.90
16283;DHT22;8249;48.708;9.030;2022-12-11T12:09:41;1.90;99.90
16283;DHT22;8249;48.708;9.030;2022-12-11T12:12:21;1.90;99.90
16283;DHT22;8249;48.708;9.030;2022-12-11T12:15:05;2.00;99.90
16283;DHT22;8249;48.708;9.030;2022-12-11T12:17:47;1.80;99.90
16283;DHT22;8249;48.708;9.030;2022-12-11T12:20:21;1.80;99.90
16283;DHT22;8249;48.708;9.030;2022-12-11T12:23:10;1.80;99.90
16283;DHT22;8249;48.708;9.030;2022-12-11T12:25:44;1.80;99.90
16283;DHT22;8249;48.708;9.030;2022-12-11T12:28:21;1.70;99.90
16283;DHT22;8249;48.708;9.030;2022-12-11T12:31:02;1.70;99.90
16283;DHT22;8249;48.708;9.030;2022-12-11T12:33:42;1.80;99.90
16283;DHT22;8249;48.708;9.030;2022-12-11T12:36:19;1.80;99.90
16283;DHT22;8249;48.708;9.030;2022-12-11T12:38:52;1.90;99.90
16283;DHT22;8249;48.708;9.030;2022-12-11T12:41:23;2.10;99.90
16283;DHT22;8249;48.708;9.030;2022-12-11T12:44:03;2.20;99.90
16283;DHT22;8249;48.708;9.030;2022-12-11T12:46:45;2.20;99.90
16283;DHT22;8249;48.708;9.030;2022-12-11T12:49:24;2.40;99.90
16283;DHT22;8249;48.708;9.030;2022-12-11T12:51:54;2.50;99.90
16283;DHT22;8249;48.708;9.030;2022-12-11T12:54:23;2.60;99.90
16283;DHT22;8249;48.708;9.030;2022-12-11T12:56:51;2.70;99.90
16283;DHT22;8249;48.708;9.030;2022-12-11T12:59:20;2.80;99.90
16283;DHT22;8249;48.708;9.030;2022-12-11T13:01:49;2.90;99.90
16283;DHT22;8249;48.708;9.030;2022-12-11T13:04:33;2.90;99.90
16283;DHT22;8249;48.708;9.030;2022-12-11T13:07:10;3.00;99.90
16283;DHT22;8249;48.708;9.030;2022-12-11T13:09:39;3.30;99.90
16283;DHT22;8249;48.708;9.030;2022-12-11T13:12:12;4.10;99.90
16283;DHT22;8249;48.708;9.030;2022-12-11T13:14:40;4.10;99.90
16283;DHT22;8249;48.708;9.030;2022-12-11T13:17:24;3.90;99.90
16283;DHT22;8249;48.708;9.030;2022-12-11T13:20:12;3.60;99.90
16283;DHT22;8249;48.708;9.030;2022-12-11T13:22:48;3.10;99.90
16283;DHT22;8249;48.708;9.030;2022-12-11T13:25:22;2.90;99.90
16283;DHT22;8249;48.708;9.030;2022-12-11T13:27:49;2.80;99.90
16283;DHT22;8249;48.708;9.030;2022-12-11T13:30:23;3.20;99.90
16283;DHT22;8249;48.708;9.030;2022-12-11T13:32:59;3.40;99.90
16283;DHT22;8249;48.708;9.030;2022-12-11T13:35:28;3.90;99.90
16283;DHT22;8249;48.708;9.030;2022-12-11T13:38:02;4.40;99.90
16283;DHT22;8249;48.708;9.030;2022-12-11T13:40:38;4.60;99.90
16283;DHT22;8249;48.708;9.030;2022-12-11T13:43:14;4.50;99.90
16283;DHT22;8249;48.708;9.030;2022-12-11T13:45:46;4.60;99.90
16283;DHT22;8249;48.708;9.030;2022-12-11T13:48:21;4.40;99.90
16283;DHT22;8249;48.708;9.030;2022-12-11T13:50:52;4.20;99.90
16283;DHT22;8249;48.708;9.030;2022-12-11T13:53:20;3.80;99.90
16283;DHT22;8249;48.708;9.030;2022-12-11T13:55:55;3.60;99.90
16283;DHT22;8249;48.708;9.030;2022-12-11T13:58:25;3.00;99.90
16283;DHT22;8249;48.708;9.030;2022-12-11T14:01:01;2.80;99.90
16283;DHT22;8249;48.708;9.030;2022-12-11T14:03:30;2.40;99.90
16283;DHT22;8249;48.708;9.030;2022-12-11T14:06:00;2.20;99.90
16283;DHT22;8249;48.708;9.030;2022-12-11T14:08:32;2.00;99.90
16283;DHT22;8249;48.708;9.030;2022-12-11T14:11:00;1.90;99.90
16283;DHT22;8249;48.708;9.030;2022-12-11T14:13:31;1.80;99.90
16283;DHT22;8249;48.708;9.030;2022-12-11T14:15:59;1.80;99.90
16283;DHT22;8249;48.708;9.030;2022-12-11T14:18:29;1.70;99.90
16283;DHT22;8249;48.708;9.030;2022-12-11T14:21:00;1.70;99.90
16283;DHT22;8249;48.708;9.030;2022-12-11T14:23:28;1.60;99.90
16283;DHT22;8249;48.708;9.030;2022-12-11T14:25:57;1.60;99.90
16283;DHT22;8249;48.708;9.030;2022-12-11T14:28:26;1.50;99.90
16283;DHT22;8249;48.708;9.030;2022-12-11T14:30:55;1.40;99.90
16283;DHT22;8249;48.708;9.030;2022-12-11T14:33:26;1.30;99.90
16283;DHT22;8249;48.708;9.030;2022-12-11T14:35:56;1.30;99.90
16283;DHT22;8249;48.708;9.030;2022-12-11T14:38:27;1.20;99.90
16283;DHT22;8249;48.708;9.030;2022-12-11T14:40:58;1.20;99.90
16283;DHT22;8249;48.708;9.030;2022-12-11T14:43:29;1.10;99.90
16283;DHT22;8249;48.708;9.030;2022-12-11T14:46:03;1.00;99.90
16283;DHT22;8249;48.708;9.030;2022-12-11T14:48:34;1.00;99.90
16283;DHT22;8249;48.708;9.030;2022-12-11T14:51:06;0.90;99.90
16283;DHT22;8249;48.708;9.030;2022-12-11T14:53:37;0.80;99.90
16283;DHT22;8249;48.708;9.030;2022-12-11T14:56:08;0.70;99.90
16283;DHT22;8249;48.708;9.030;2022-12-11T14:58:46;0.70;99.90
16283;DHT22;8249;48.708;9.030;2022-12-11T15:01:22;0.60;99.90
16283;DHT22;8249;48.708;9.030;2022-12-11T15:04:00;0.50;99.90
16283;DHT22;8249;48.708;9.030;2022-12-11T15:06:29;0.40;99.90
16283;DHT22;8249;48.708;9.030;2022-12-11T15:09:08;0.40;99.90
16283;DHT22;8249;48.708;9.030;2022-12-11T15:11:36;0.30;99.90
16283;DHT22;8249;48.708;9.030;2022-12-11T15:14:03;0.10;99.90
16283;DHT22;8249;48.708;9.030;2022-12-11T15:16:33;0.10;99.90
16283;DHT22;8249;48.708;9.030;2022-12-11T15:19:02;0.00;99.90
16283;DHT22;8249;48.708;9.030;2022-12-11T15:21:31;-0.10;99.90
16283;DHT22;8249;48.708;9.030;2022-12-11T15:24:01;-0.10;99.90
16283;DHT22;8249;48.708;9.030;2022-12-11T15:26:34;-0.20;99.90
16283;DHT22;8249;48.708;9.030;2022-12-11T15:29:04;-0.20;99.90
16283;DHT22;8249;48.708;9.030;2022-12-11T15:31:33;-0.30;99.90
16283;DHT22;8249;48.708;9.030;2022-12-11T15:34:01;-0.40;99.90
16283;DHT22;8249;48.708;9.030;2022-12-11T15:36:31;-0.40;99.90
16283;DHT22;8249;48.708;9.030;2022-12-11T15:39:01;-0.40;99.90
16283;DHT22;8249;48.708;9.030;2022-12-11T15:41:28;-0.50;99.90
16283;DHT22;8249;48.708;9.030;2022-12-11T15:44:00;-0.50;99.90
16283;DHT22;8249;48.708;9.030;2022-12-11T15:46:27;-0.60;99.90
16283;DHT22;8249;48.708;9.030;2022-12-11T15:48:55;-0.60;99.90
16283;DHT22;8249;48.708;9.030;2022-12-11T15:51:22;-0.70;99.90
16283;DHT22;8249;48.708;9.030;2022-12-11T15:53:52;-0.70;99.90
16283;DHT22;8249;48.708;9.030;2022-12-11T15:56:20;-0.70;99.90
16283;DHT22;8249;48.708;9.030;2022-12-11T15:58:48;-0.70;99.90
16283;DHT22;8249;48.708;9.030;2022-12-11T16:01:15;-0.70;99.90
16283;DHT22;8249;48.708;9.030;2022-12-11T16:03:42;-0.70;99.90
16283;DHT22;8249;48.708;9.030;2022-12-11T16:06:11;-0.80;99.90
16283;DHT22;8249;48.708;9.030;2022-12-11T16:08:39;-0.80;99.90
16283;DHT22;8249;48.708;9.030;2022-12-11T16:11:06;-0.90;99.90
16283;DHT22;8249;48.708;9.030;2022-12-11T16:13:34;-0.90;99.90
16283;DHT22;8249;48.708;9.030;2022-12-11T16:16:01;-0.90;99.90